Glacier National Park, MT

7:06 PM MDT on October 25, 2014 (GMT -0600)
Cut Bank Municipal | Change Station
CLOSE
Current Station
Airport
Location: Cut Bank,
Elevation: 3855 ft
Nearby Weather Stations
Active Advisory: High Wind Warning

Elev 3855 ft 48.61 °N, 112.38 °W | Updated 10 minutes ago

Overcast
Overcast
48 °F
Feels Like 48 °F
N
9
Wind Variable Wind from ESE

Today
High -- | Low -- °F
--% Chance of Precip.
Yesterday
High -- | Low -- °F
Precip. -- in
8:09 AM 6:25 PM
Waxing Crescent, 5% visible
Pressure 29.65 in
Visibility 10.0 miles
Clouds Clear
Dew Point 39 °F
Humidity 71%
Rainfall 0.00 in
Snow Depth 0 in , 0 in
UV 0 out of 12
Pollen .30 out of 12
Air Quality Not available.
Flu Activity No Activity
METAR KCTB 260056Z AUTO 11008KT 10SM CLR 09/04 A2964 RMK AO2 SLP041 T00890039

More Conditions Fewer Conditions

Pressure 29.65 in
Visibility 10.0 miles
Clouds Clear
Dew Point 39 °F
Humidity 71%
Rainfall 0.00 in
Snow Depth 0 in , 0 in
UV 0 out of 12
Pollen .30 out of 12
Air Quality Not available.
Flu Activity No Activity
METAR KCTB 260056Z AUTO 11008KT 10SM CLR 09/04 A2964 RMK AO2 SLP041 T00890039

More Conditions Fewer Conditions

10-Day Weather Forecast

Almanac

Astronomy

Oct. 25, 2014 Rise Set
Actual Time 8:09 AM MDT 6:25 PM MDT
Civil Twilight 7:37 AM MDT 6:58 PM MDT
Nautical Twilight 7:00 AM MDT 7:34 PM MDT
Astronomical Twilight 6:24 AM MDT 8:11 PM MDT
Moon 9:59 AM MDT (10/25) 7:44 PM MDT (10/25)
Length of Visible Light 11h 20m
Length of Day
10h 15m
Tomorrow will be 3m 20s shorter.
Waxing Crescent, 5% of the Moon is Illuminated
Today
Waxing Crescent
Oct 30
First Quarter
Nov 6
Full
Nov 14
Last Quarter
Nov 22
New

Today's Extremes

State Highs State Lows

Community

WunderPhotos

Upload Photos

1,765,057 photos uploaded!

Nearby

Snow Depth

Station Depth Elevation
Many Glacier 0 in 4900 ft
Flattop Mountain 0 in 6300 ft
Badger Pass 0 in 6900 ft
Grave Creek 0 in 4300 ft
Mount Lockhart 0 in 6400 ft

Earthquake Activity

City Distance Mag. Time & Date
No recent earthquake activity has been reported nearby.
Minimum magnitude displayed is 2.5.

Coastal Water Temperatures

Place Temperature
No Stations Reporting

Nearby Weather Stations